sensor_id;sensor_type;location;lat;lon;timestamp;P1;durP1;ratioP1;P2;durP2;ratioP2
25549;SDS011;13444;50.562;7.262;2023-05-20T00:01:31;3.65;;;2.22;;
25549;SDS011;13444;50.562;7.262;2023-05-20T00:03:57;5.43;;;2.50;;
25549;SDS011;13444;50.562;7.262;2023-05-20T00:06:22;3.40;;;2.15;;
25549;SDS011;13444;50.562;7.262;2023-05-20T00:08:48;3.17;;;2.25;;
25549;SDS011;13444;50.562;7.262;2023-05-20T00:11:13;4.20;;;2.10;;
25549;SDS011;13444;50.562;7.262;2023-05-20T00:13:39;3.08;;;1.98;;
25549;SDS011;13444;50.562;7.262;2023-05-20T00:16:04;4.93;;;1.88;;
25549;SDS011;13444;50.562;7.262;2023-05-20T00:18:30;4.70;;;1.65;;
25549;SDS011;13444;50.562;7.262;2023-05-20T00:20:56;3.15;;;1.80;;
25549;SDS011;13444;50.562;7.262;2023-05-20T00:23:22;5.78;;;2.00;;
25549;SDS011;13444;50.562;7.262;2023-05-20T00:25:48;4.88;;;2.08;;
25549;SDS011;13444;50.562;7.262;2023-05-20T00:28:14;3.20;;;1.70;;
25549;SDS011;13444;50.562;7.262;2023-05-20T00:30:39;5.20;;;2.20;;
25549;SDS011;13444;50.562;7.262;2023-05-20T00:33:06;3.53;;;2.10;;
25549;SDS011;13444;50.562;7.262;2023-05-20T00:35:31;4.25;;;1.80;;
25549;SDS011;13444;50.562;7.262;2023-05-20T00:37:57;3.05;;;1.90;;
25549;SDS011;13444;50.562;7.262;2023-05-20T00:40:22;3.70;;;1.98;;
25549;SDS011;13444;50.562;7.262;2023-05-20T00:42:49;1.92;;;1.70;;
25549;SDS011;13444;50.562;7.262;2023-05-20T00:45:15;2.70;;;1.70;;
25549;SDS011;13444;50.562;7.262;2023-05-20T00:47:40;5.35;;;2.10;;
25549;SDS011;13444;50.562;7.262;2023-05-20T00:50:07;2.80;;;1.92;;
25549;SDS011;13444;50.562;7.262;2023-05-20T00:52:34;3.60;;;1.92;;
25549;SDS011;13444;50.562;7.262;2023-05-20T00:55:01;3.45;;;1.98;;
25549;SDS011;13444;50.562;7.262;2023-05-20T00:57:26;3.83;;;1.88;;
25549;SDS011;13444;50.562;7.262;2023-05-20T00:59:52;3.05;;;1.95;;
25549;SDS011;13444;50.562;7.262;2023-05-20T01:02:18;3.17;;;2.15;;
25549;SDS011;13444;50.562;7.262;2023-05-20T01:04:45;3.33;;;2.10;;
25549;SDS011;13444;50.562;7.262;2023-05-20T01:07:11;4.55;;;1.80;;
25549;SDS011;13444;50.562;7.262;2023-05-20T01:09:39;2.92;;;2.13;;
25549;SDS011;13444;50.562;7.262;2023-05-20T01:14:40;3.38;;;2.03;;
25549;SDS011;13444;50.562;7.262;2023-05-20T01:17:12;3.20;;;1.75;;
25549;SDS011;13444;50.562;7.262;2023-05-20T01:19:42;2.65;;;1.85;;
25549;SDS011;13444;50.562;7.262;2023-05-20T01:22:12;4.25;;;1.95;;
25549;SDS011;13444;50.562;7.262;2023-05-20T01:24:42;3.17;;;2.08;;
25549;SDS011;13444;50.562;7.262;2023-05-20T01:27:09;2.17;;;1.77;;
25549;SDS011;13444;50.562;7.262;2023-05-20T01:29:37;3.55;;;2.20;;
25549;SDS011;13444;50.562;7.262;2023-05-20T01:32:05;3.85;;;2.10;;
25549;SDS011;13444;50.562;7.262;2023-05-20T01:34:35;2.75;;;1.92;;
25549;SDS011;13444;50.562;7.262;2023-05-20T01:37:02;3.85;;;2.10;;
25549;SDS011;13444;50.562;7.262;2023-05-20T01:39:29;3.58;;;2.20;;
25549;SDS011;13444;50.562;7.262;2023-05-20T01:41:56;5.28;;;2.30;;
25549;SDS011;13444;50.562;7.262;2023-05-20T01:44:22;2.97;;;1.80;;
25549;SDS011;13444;50.562;7.262;2023-05-20T01:46:48;3.67;;;1.90;;
25549;SDS011;13444;50.562;7.262;2023-05-20T01:49:14;3.38;;;1.75;;
25549;SDS011;13444;50.562;7.262;2023-05-20T01:51:40;3.05;;;1.77;;
25549;SDS011;13444;50.562;7.262;2023-05-20T01:54:05;2.60;;;1.95;;
25549;SDS011;13444;50.562;7.262;2023-05-20T01:56:31;3.33;;;1.98;;
25549;SDS011;13444;50.562;7.262;2023-05-20T01:58:56;4.20;;;2.35;;
25549;SDS011;13444;50.562;7.262;2023-05-20T02:01:22;2.35;;;1.88;;
25549;SDS011;13444;50.562;7.262;2023-05-20T02:03:47;3.90;;;1.85;;
25549;SDS011;13444;50.562;7.262;2023-05-20T02:06:13;3.38;;;1.98;;
25549;SDS011;13444;50.562;7.262;2023-05-20T02:08:38;8.85;;;2.42;;
25549;SDS011;13444;50.562;7.262;2023-05-20T02:11:04;4.10;;;2.00;;
25549;SDS011;13444;50.562;7.262;2023-05-20T02:13:30;2.47;;;1.98;;
25549;SDS011;13444;50.562;7.262;2023-05-20T02:15:55;4.68;;;2.25;;
25549;SDS011;13444;50.562;7.262;2023-05-20T02:18:21;4.20;;;2.00;;
25549;SDS011;13444;50.562;7.262;2023-05-20T02:20:46;2.65;;;2.17;;
25549;SDS011;13444;50.562;7.262;2023-05-20T02:23:12;2.28;;;1.80;;
25549;SDS011;13444;50.562;7.262;2023-05-20T02:25:37;2.58;;;1.80;;
25549;SDS011;13444;50.562;7.262;2023-05-20T02:28:03;3.20;;;2.00;;
25549;SDS011;13444;50.562;7.262;2023-05-20T02:30:30;3.97;;;1.90;;
25549;SDS011;13444;50.562;7.262;2023-05-20T02:32:55;2.42;;;2.05;;
25549;SDS011;13444;50.562;7.262;2023-05-20T02:35:21;3.03;;;1.83;;
25549;SDS011;13444;50.562;7.262;2023-05-20T02:37:47;2.58;;;1.70;;
25549;SDS011;13444;50.562;7.262;2023-05-20T02:40:13;2.83;;;1.90;;
25549;SDS011;13444;50.562;7.262;2023-05-20T02:42:39;4.10;;;1.75;;
25549;SDS011;13444;50.562;7.262;2023-05-20T02:45:05;4.40;;;2.05;;
25549;SDS011;13444;50.562;7.262;2023-05-20T02:47:31;2.67;;;1.90;;
25549;SDS011;13444;50.562;7.262;2023-05-20T02:49:56;2.47;;;1.85;;
25549;SDS011;13444;50.562;7.262;2023-05-20T02:52:22;2.45;;;1.73;;
25549;SDS011;13444;50.562;7.262;2023-05-20T02:54:47;2.67;;;1.70;;
25549;SDS011;13444;50.562;7.262;2023-05-20T02:57:13;2.50;;;2.05;;
25549;SDS011;13444;50.562;7.262;2023-05-20T02:59:38;2.40;;;1.83;;
25549;SDS011;13444;50.562;7.262;2023-05-20T03:02:04;3.00;;;2.05;;
25549;SDS011;13444;50.562;7.262;2023-05-20T03:04:30;4.53;;;1.98;;
25549;SDS011;13444;50.562;7.262;2023-05-20T03:06:56;3.33;;;2.17;;
25549;SDS011;13444;50.562;7.262;2023-05-20T03:09:22;2.78;;;2.20;;
25549;SDS011;13444;50.562;7.262;2023-05-20T03:11:49;3.00;;;1.73;;
25549;SDS011;13444;50.562;7.262;2023-05-20T03:14:14;3.35;;;2.17;;
25549;SDS011;13444;50.562;7.262;2023-05-20T03:16:40;3.53;;;1.90;;
25549;SDS011;13444;50.562;7.262;2023-05-20T03:19:06;4.30;;;1.85;;
25549;SDS011;13444;50.562;7.262;2023-05-20T03:21:31;3.53;;;2.25;;
25549;SDS011;13444;50.562;7.262;2023-05-20T03:23:58;2.15;;;1.83;;
25549;SDS011;13444;50.562;7.262;2023-05-20T03:26:23;2.85;;;2.10;;
25549;SDS011;13444;50.562;7.262;2023-05-20T03:28:49;6.45;;;2.28;;
25549;SDS011;13444;50.562;7.262;2023-05-20T03:31:15;2.10;;;1.90;;
25549;SDS011;13444;50.562;7.262;2023-05-20T03:33:41;3.33;;;2.00;;
25549;SDS011;13444;50.562;7.262;2023-05-20T03:36:06;3.63;;;1.88;;
25549;SDS011;13444;50.562;7.262;2023-05-20T03:38:32;2.45;;;1.88;;
25549;SDS011;13444;50.562;7.262;2023-05-20T03:40:58;3.90;;;2.22;;
25549;SDS011;13444;50.562;7.262;2023-05-20T03:43:23;4.15;;;1.80;;
25549;SDS011;13444;50.562;7.262;2023-05-20T03:45:49;2.72;;;1.98;;
25549;SDS011;13444;50.562;7.262;2023-05-20T03:48:15;2.63;;;1.90;;
25549;SDS011;13444;50.562;7.262;2023-05-20T03:50:40;3.90;;;2.20;;
25549;SDS011;13444;50.562;7.262;2023-05-20T03:53:06;5.80;;;1.92;;
25549;SDS011;13444;50.562;7.262;2023-05-20T03:55:32;6.60;;;2.50;;
25549;SDS011;13444;50.562;7.262;2023-05-20T03:57:57;2.38;;;1.85;;
25549;SDS011;13444;50.562;7.262;2023-05-20T04:00:23;4.68;;;2.38;;
25549;SDS011;13444;50.562;7.262;2023-05-20T04:02:48;2.67;;;2.08;;
25549;SDS011;13444;50.562;7.262;2023-05-20T04:05:14;3.80;;;2.10;;
25549;SDS011;13444;50.562;7.262;2023-05-20T04:07:40;4.07;;;2.15;;
25549;SDS011;13444;50.562;7.262;2023-05-20T04:10:05;2.58;;;1.90;;
25549;SDS011;13444;50.562;7.262;2023-05-20T04:12:32;3.97;;;2.30;;
25549;SDS011;13444;50.562;7.262;2023-05-20T04:14:59;2.70;;;2.13;;
25549;SDS011;13444;50.562;7.262;2023-05-20T04:17:28;3.50;;;2.35;;
25549;SDS011;13444;50.562;7.262;2023-05-20T04:19:55;5.40;;;2.30;;
25549;SDS011;13444;50.562;7.262;2023-05-20T04:22:21;3.92;;;2.10;;
25549;SDS011;13444;50.562;7.262;2023-05-20T04:24:47;5.40;;;2.10;;
25549;SDS011;13444;50.562;7.262;2023-05-20T04:27:13;3.38;;;2.17;;
25549;SDS011;13444;50.562;7.262;2023-05-20T04:29:40;4.05;;;2.58;;
25549;SDS011;13444;50.562;7.262;2023-05-20T04:32:10;6.10;;;2.58;;
25549;SDS011;13444;50.562;7.262;2023-05-20T04:34:37;5.18;;;2.42;;
25549;SDS011;13444;50.562;7.262;2023-05-20T04:37:02;5.25;;;2.40;;
25549;SDS011;13444;50.562;7.262;2023-05-20T04:39:28;5.18;;;2.53;;
25549;SDS011;13444;50.562;7.262;2023-05-20T04:41:54;3.55;;;2.15;;
25549;SDS011;13444;50.562;7.262;2023-05-20T04:44:19;3.60;;;2.65;;
25549;SDS011;13444;50.562;7.262;2023-05-20T04:46:46;2.85;;;2.20;;
25549;SDS011;13444;50.562;7.262;2023-05-20T04:49:12;5.53;;;2.47;;
25549;SDS011;13444;50.562;7.262;2023-05-20T04:51:39;5.95;;;2.42;;
25549;SDS011;13444;50.562;7.262;2023-05-20T04:54:05;5.03;;;2.30;;
25549;SDS011;13444;50.562;7.262;2023-05-20T04:56:31;4.68;;;2.22;;
25549;SDS011;13444;50.562;7.262;2023-05-20T04:58:57;5.82;;;2.67;;
25549;SDS011;13444;50.562;7.262;2023-05-20T05:01:23;3.70;;;2.45;;
25549;SDS011;13444;50.562;7.262;2023-05-20T05:03:48;4.75;;;1.98;;
25549;SDS011;13444;50.562;7.262;2023-05-20T05:06:14;3.30;;;2.45;;
25549;SDS011;13444;50.562;7.262;2023-05-20T05:08:39;5.57;;;2.63;;
25549;SDS011;13444;50.562;7.262;2023-05-20T05:11:05;3.58;;;2.38;;
25549;SDS011;13444;50.562;7.262;2023-05-20T05:13:30;4.78;;;2.38;;
25549;SDS011;13444;50.562;7.262;2023-05-20T05:15:57;3.83;;;2.60;;
25549;SDS011;13444;50.562;7.262;2023-05-20T05:18:23;3.40;;;2.13;;
25549;SDS011;13444;50.562;7.262;2023-05-20T05:20:48;3.25;;;2.25;;
25549;SDS011;13444;50.562;7.262;2023-05-20T05:23:14;3.53;;;2.45;;
25549;SDS011;13444;50.562;7.262;2023-05-20T05:25:39;3.10;;;2.20;;
25549;SDS011;13444;50.562;7.262;2023-05-20T05:28:05;3.25;;;2.30;;
25549;SDS011;13444;50.562;7.262;2023-05-20T05:30:31;3.08;;;2.40;;
25549;SDS011;13444;50.562;7.262;2023-05-20T05:32:56;3.30;;;2.30;;
25549;SDS011;13444;50.562;7.262;2023-05-20T05:35:22;4.50;;;2.47;;
25549;SDS011;13444;50.562;7.262;2023-05-20T05:37:47;3.60;;;2.40;;
25549;SDS011;13444;50.562;7.262;2023-05-20T05:40:13;3.70;;;2.30;;
25549;SDS011;13444;50.562;7.262;2023-05-20T05:42:38;2.90;;;1.85;;
25549;SDS011;13444;50.562;7.262;2023-05-20T05:45:04;3.88;;;2.35;;
25549;SDS011;13444;50.562;7.262;2023-05-20T05:47:30;3.60;;;2.35;;
25549;SDS011;13444;50.562;7.262;2023-05-20T05:49:56;5.00;;;2.40;;
25549;SDS011;13444;50.562;7.262;2023-05-20T05:52:23;4.45;;;2.65;;
25549;SDS011;13444;50.562;7.262;2023-05-20T05:54:49;3.85;;;2.47;;
25549;SDS011;13444;50.562;7.262;2023-05-20T05:57:15;6.93;;;2.63;;
25549;SDS011;13444;50.562;7.262;2023-05-20T05:59:40;3.92;;;2.40;;
25549;SDS011;13444;50.562;7.262;2023-05-20T06:02:06;5.15;;;2.88;;
25549;SDS011;13444;50.562;7.262;2023-05-20T06:04:31;4.72;;;2.55;;
25549;SDS011;13444;50.562;7.262;2023-05-20T06:06:57;2.22;;;1.90;;
25549;SDS011;13444;50.562;7.262;2023-05-20T06:09:22;3.13;;;2.60;;
25549;SDS011;13444;50.562;7.262;2023-05-20T06:11:48;3.92;;;2.80;;
25549;SDS011;13444;50.562;7.262;2023-05-20T06:14:13;7.30;;;2.67;;
25549;SDS011;13444;50.562;7.262;2023-05-20T06:16:39;4.18;;;2.20;;
25549;SDS011;13444;50.562;7.262;2023-05-20T06:19:04;3.08;;;2.38;;
25549;SDS011;13444;50.562;7.262;2023-05-20T06:21:30;4.88;;;2.30;;
25549;SDS011;13444;50.562;7.262;2023-05-20T06:23:56;5.97;;;2.78;;
25549;SDS011;13444;50.562;7.262;2023-05-20T06:26:22;4.70;;;2.10;;
25549;SDS011;13444;50.562;7.262;2023-05-20T06:28:48;5.63;;;2.30;;
25549;SDS011;13444;50.562;7.262;2023-05-20T06:31:13;5.40;;;2.72;;
25549;SDS011;13444;50.562;7.262;2023-05-20T06:33:39;4.55;;;2.75;;
25549;SDS011;13444;50.562;7.262;2023-05-20T06:36:04;7.10;;;2.30;;
25549;SDS011;13444;50.562;7.262;2023-05-20T06:38:30;2.70;;;2.03;;
25549;SDS011;13444;50.562;7.262;2023-05-20T06:40:55;4.15;;;2.70;;
25549;SDS011;13444;50.562;7.262;2023-05-20T06:43:21;4.65;;;2.20;;
25549;SDS011;13444;50.562;7.262;2023-05-20T06:45:46;5.03;;;2.38;;
25549;SDS011;13444;50.562;7.262;2023-05-20T06:48:12;4.78;;;2.35;;
25549;SDS011;13444;50.562;7.262;2023-05-20T06:50:38;4.00;;;2.15;;
25549;SDS011;13444;50.562;7.262;2023-05-20T06:53:03;3.60;;;2.30;;
25549;SDS011;13444;50.562;7.262;2023-05-20T06:55:29;5.82;;;2.05;;
25549;SDS011;13444;50.562;7.262;2023-05-20T06:57:54;3.25;;;1.77;;
25549;SDS011;13444;50.562;7.262;2023-05-20T07:00:20;3.97;;;2.00;;
25549;SDS011;13444;50.562;7.262;2023-05-20T07:02:46;4.55;;;2.60;;
25549;SDS011;13444;50.562;7.262;2023-05-20T07:05:11;4.75;;;2.30;;
25549;SDS011;13444;50.562;7.262;2023-05-20T07:07:37;2.58;;;2.08;;
25549;SDS011;13444;50.562;7.262;2023-05-20T07:10:04;2.60;;;2.30;;
25549;SDS011;13444;50.562;7.262;2023-05-20T07:12:30;4.03;;;2.50;;
25549;SDS011;13444;50.562;7.262;2023-05-20T07:14:56;3.30;;;2.50;;
25549;SDS011;13444;50.562;7.262;2023-05-20T07:17:22;6.57;;;2.63;;
25549;SDS011;13444;50.562;7.262;2023-05-20T07:19:48;8.10;;;2.55;;
25549;SDS011;13444;50.562;7.262;2023-05-20T07:22:13;3.97;;;2.72;;
25549;SDS011;13444;50.562;7.262;2023-05-20T07:24:39;5.43;;;2.30;;
25549;SDS011;13444;50.562;7.262;2023-05-20T07:27:07;4.20;;;2.20;;
25549;SDS011;13444;50.562;7.262;2023-05-20T07:29:34;5.72;;;2.63;;
25549;SDS011;13444;50.562;7.262;2023-05-20T07:32:00;3.17;;;2.20;;
25549;SDS011;13444;50.562;7.262;2023-05-20T07:34:26;3.85;;;2.22;;
25549;SDS011;13444;50.562;7.262;2023-05-20T07:36:51;6.47;;;2.53;;
25549;SDS011;13444;50.562;7.262;2023-05-20T07:39:17;7.25;;;2.83;;
25549;SDS011;13444;50.562;7.262;2023-05-20T07:41:43;4.72;;;2.17;;
25549;SDS011;13444;50.562;7.262;2023-05-20T07:44:08;3.90;;;2.28;;
25549;SDS011;13444;50.562;7.262;2023-05-20T07:46:35;3.47;;;2.55;;
25549;SDS011;13444;50.562;7.262;2023-05-20T07:49:02;3.47;;;2.33;;
25549;SDS011;13444;50.562;7.262;2023-05-20T07:51:28;5.05;;;2.30;;
25549;SDS011;13444;50.562;7.262;2023-05-20T07:53:53;4.40;;;2.40;;
25549;SDS011;13444;50.562;7.262;2023-05-20T07:56:19;3.67;;;2.53;;
25549;SDS011;13444;50.562;7.262;2023-05-20T07:58:51;7.18;;;2.55;;
25549;SDS011;13444;50.562;7.262;2023-05-20T08:01:20;3.85;;;2.60;;
25549;SDS011;13444;50.562;7.262;2023-05-20T08:03:46;4.68;;;2.50;;
25549;SDS011;13444;50.562;7.262;2023-05-20T08:06:11;14.93;;;3.40;;
25549;SDS011;13444;50.562;7.262;2023-05-20T08:08:37;4.55;;;2.20;;
25549;SDS011;13444;50.562;7.262;2023-05-20T08:11:04;7.38;;;2.40;;
25549;SDS011;13444;50.562;7.262;2023-05-20T08:13:30;3.33;;;2.60;;
25549;SDS011;13444;50.562;7.262;2023-05-20T08:15:55;3.25;;;1.90;;
25549;SDS011;13444;50.562;7.262;2023-05-20T08:18:21;5.03;;;2.35;;
25549;SDS011;13444;50.562;7.262;2023-05-20T08:20:47;6.07;;;2.60;;
25549;SDS011;13444;50.562;7.262;2023-05-20T08:23:12;4.03;;;2.40;;
25549;SDS011;13444;50.562;7.262;2023-05-20T08:25:38;6.50;;;1.90;;
25549;SDS011;13444;50.562;7.262;2023-05-20T08:28:04;5.65;;;2.20;;
25549;SDS011;13444;50.562;7.262;2023-05-20T08:30:31;4.32;;;2.45;;
25549;SDS011;13444;50.562;7.262;2023-05-20T08:32:57;3.60;;;2.15;;
25549;SDS011;13444;50.562;7.262;2023-05-20T08:35:24;5.63;;;2.20;;
25549;SDS011;13444;50.562;7.262;2023-05-20T08:37:50;3.30;;;2.20;;
25549;SDS011;13444;50.562;7.262;2023-05-20T08:40:18;2.92;;;2.17;;
25549;SDS011;13444;50.562;7.262;2023-05-20T08:42:47;4.00;;;2.05;;
25549;SDS011;13444;50.562;7.262;2023-05-20T08:45:15;3.80;;;2.40;;
25549;SDS011;13444;50.562;7.262;2023-05-20T08:47:42;3.22;;;2.50;;
25549;SDS011;13444;50.562;7.262;2023-05-20T08:50:08;4.70;;;2.08;;
25549;SDS011;13444;50.562;7.262;2023-05-20T08:52:36;3.00;;;1.90;;
25549;SDS011;13444;50.562;7.262;2023-05-20T08:55:06;3.08;;;2.30;;
25549;SDS011;13444;50.562;7.262;2023-05-20T08:57:36;3.72;;;2.20;;
25549;SDS011;13444;50.562;7.262;2023-05-20T09:00:02;3.97;;;2.47;;
25549;SDS011;13444;50.562;7.262;2023-05-20T09:02:35;8.60;;;2.80;;
25549;SDS011;13444;50.562;7.262;2023-05-20T09:05:02;4.20;;;2.65;;
25549;SDS011;13444;50.562;7.262;2023-05-20T09:07:29;4.75;;;2.50;;
25549;SDS011;13444;50.562;7.262;2023-05-20T09:10:01;4.25;;;2.78;;
25549;SDS011;13444;50.562;7.262;2023-05-20T09:12:27;6.43;;;2.97;;
25549;SDS011;13444;50.562;7.262;2023-05-20T09:14:52;2.42;;;1.90;;
25549;SDS011;13444;50.562;7.262;2023-05-20T09:17:19;5.57;;;2.40;;
25549;SDS011;13444;50.562;7.262;2023-05-20T09:19:48;3.63;;;2.65;;
25549;SDS011;13444;50.562;7.262;2023-05-20T09:22:14;5.47;;;2.88;;
25549;SDS011;13444;50.562;7.262;2023-05-20T09:24:39;2.50;;;2.28;;
25549;SDS011;13444;50.562;7.262;2023-05-20T09:27:05;2.42;;;2.20;;
25549;SDS011;13444;50.562;7.262;2023-05-20T09:29:32;3.67;;;2.97;;
25549;SDS011;13444;50.562;7.262;2023-05-20T09:31:57;3.30;;;2.45;;
25549;SDS011;13444;50.562;7.262;2023-05-20T09:34:26;4.03;;;2.60;;
25549;SDS011;13444;50.562;7.262;2023-05-20T09:36:53;2.95;;;2.65;;
25549;SDS011;13444;50.562;7.262;2023-05-20T09:39:22;3.33;;;2.65;;
25549;SDS011;13444;50.562;7.262;2023-05-20T09:44:28;5.57;;;2.53;;
25549;SDS011;13444;50.562;7.262;2023-05-20T09:46:55;3.38;;;2.20;;
25549;SDS011;13444;50.562;7.262;2023-05-20T09:49:21;3.75;;;2.53;;
25549;SDS011;13444;50.562;7.262;2023-05-20T09:51:49;4.43;;;2.30;;
25549;SDS011;13444;50.562;7.262;2023-05-20T09:54:17;3.92;;;2.40;;
25549;SDS011;13444;50.562;7.262;2023-05-20T09:56:43;5.45;;;2.95;;
25549;SDS011;13444;50.562;7.262;2023-05-20T09:59:10;2.75;;;2.40;;
25549;SDS011;13444;50.562;7.262;2023-05-20T10:01:40;3.22;;;2.88;;
25549;SDS011;13444;50.562;7.262;2023-05-20T10:04:06;3.75;;;2.90;;
25549;SDS011;13444;50.562;7.262;2023-05-20T10:06:43;4.47;;;2.90;;
25549;SDS011;13444;50.562;7.262;2023-05-20T10:09:43;6.22;;;3.08;;
25549;SDS011;13444;50.562;7.262;2023-05-20T10:20:47;4.05;;;3.05;;
25549;SDS011;13444;50.562;7.262;2023-05-20T10:23:20;5.63;;;2.72;;
25549;SDS011;13444;50.562;7.262;2023-05-20T10:25:50;2.95;;;2.42;;
25549;SDS011;13444;50.562;7.262;2023-05-20T10:28:23;4.20;;;2.70;;
25549;SDS011;13444;50.562;7.262;2023-05-20T10:30:56;4.07;;;3.03;;
25549;SDS011;13444;50.562;7.262;2023-05-20T10:33:24;3.78;;;2.67;;
25549;SDS011;13444;50.562;7.262;2023-05-20T10:35:54;5.35;;;3.10;;
25549;SDS011;13444;50.562;7.262;2023-05-20T10:38:23;3.97;;;2.70;;
25549;SDS011;13444;50.562;7.262;2023-05-20T10:40:48;4.03;;;2.63;;
25549;SDS011;13444;50.562;7.262;2023-05-20T10:43:15;4.25;;;2.55;;
25549;SDS011;13444;50.562;7.262;2023-05-20T10:45:50;4.50;;;2.78;;
25549;SDS011;13444;50.562;7.262;2023-05-20T10:48:23;10.55;;;3.72;;
25549;SDS011;13444;50.562;7.262;2023-05-20T10:50:54;3.75;;;3.05;;
25549;SDS011;13444;50.562;7.262;2023-05-20T10:53:21;5.93;;;3.22;;
25549;SDS011;13444;50.562;7.262;2023-05-20T10:55:49;3.72;;;2.83;;
25549;SDS011;13444;50.562;7.262;2023-05-20T10:58:16;9.32;;;3.55;;
25549;SDS011;13444;50.562;7.262;2023-05-20T11:00:46;6.15;;;3.72;;
25549;SDS011;13444;50.562;7.262;2023-05-20T11:03:12;3.83;;;3.13;;
25549;SDS011;13444;50.562;7.262;2023-05-20T11:05:39;6.20;;;3.85;;
25549;SDS011;13444;50.562;7.262;2023-05-20T11:08:06;4.55;;;3.60;;
25549;SDS011;13444;50.562;7.262;2023-05-20T11:10:32;6.32;;;3.25;;
25549;SDS011;13444;50.562;7.262;2023-05-20T11:13:00;6.78;;;3.35;;
25549;SDS011;13444;50.562;7.262;2023-05-20T11:15:26;16.85;;;4.07;;
25549;SDS011;13444;50.562;7.262;2023-05-20T11:17:54;8.30;;;3.67;;
25549;SDS011;13444;50.562;7.262;2023-05-20T11:20:25;4.82;;;3.65;;
25549;SDS011;13444;50.562;7.262;2023-05-20T11:22:51;3.63;;;3.22;;
25549;SDS011;13444;50.562;7.262;2023-05-20T11:25:18;5.20;;;3.50;;
25549;SDS011;13444;50.562;7.262;2023-05-20T11:27:44;5.35;;;3.70;;
25549;SDS011;13444;50.562;7.262;2023-05-20T11:30:11;5.50;;;3.50;;
25549;SDS011;13444;50.562;7.262;2023-05-20T11:32:40;8.30;;;4.13;;
25549;SDS011;13444;50.562;7.262;2023-05-20T11:35:23;6.57;;;3.85;;
25549;SDS011;13444;50.562;7.262;2023-05-20T11:38:08;10.43;;;4.03;;
25549;SDS011;13444;50.562;7.262;2023-05-20T11:40:34;4.43;;;3.55;;
25549;SDS011;13444;50.562;7.262;2023-05-20T11:43:00;3.70;;;3.28;;
25549;SDS011;13444;50.562;7.262;2023-05-20T11:45:37;7.07;;;3.70;;
25549;SDS011;13444;50.562;7.262;2023-05-20T11:48:07;7.25;;;3.85;;
25549;SDS011;13444;50.562;7.262;2023-05-20T11:50:34;5.82;;;4.00;;
25549;SDS011;13444;50.562;7.262;2023-05-20T11:53:03;5.15;;;3.80;;
25549;SDS011;13444;50.562;7.262;2023-05-20T11:55:30;5.85;;;3.97;;
25549;SDS011;13444;50.562;7.262;2023-05-20T11:58:03;4.45;;;3.78;;
25549;SDS011;13444;50.562;7.262;2023-05-20T12:01:08;4.82;;;4.00;;
25549;SDS011;13444;50.562;7.262;2023-05-20T12:03:34;4.93;;;4.03;;
25549;SDS011;13444;50.562;7.262;2023-05-20T12:06:01;8.15;;;3.90;;
25549;SDS011;13444;50.562;7.262;2023-05-20T12:08:27;3.90;;;3.47;;
25549;SDS011;13444;50.562;7.262;2023-05-20T12:10:53;5.00;;;3.75;;
25549;SDS011;13444;50.562;7.262;2023-05-20T12:13:18;4.55;;;3.90;;
25549;SDS011;13444;50.562;7.262;2023-05-20T12:15:44;6.68;;;3.85;;
25549;SDS011;13444;50.562;7.262;2023-05-20T12:18:09;4.93;;;4.18;;
25549;SDS011;13444;50.562;7.262;2023-05-20T12:20:35;7.50;;;4.20;;
25549;SDS011;13444;50.562;7.262;2023-05-20T12:23:01;8.20;;;4.28;;
25549;SDS011;13444;50.562;7.262;2023-05-20T12:25:26;10.30;;;4.28;;
25549;SDS011;13444;50.562;7.262;2023-05-20T12:27:52;25.33;;;5.50;;
25549;SDS011;13444;50.562;7.262;2023-05-20T12:30:19;6.13;;;3.72;;
25549;SDS011;13444;50.562;7.262;2023-05-20T12:32:46;7.95;;;3.83;;
25549;SDS011;13444;50.562;7.262;2023-05-20T12:35:13;8.60;;;3.65;;
25549;SDS011;13444;50.562;7.262;2023-05-20T12:37:39;7.15;;;3.70;;
25549;SDS011;13444;50.562;7.262;2023-05-20T12:40:06;20.98;;;5.05;;
25549;SDS011;13444;50.562;7.262;2023-05-20T12:42:38;12.10;;;3.53;;
25549;SDS011;13444;50.562;7.262;2023-05-20T12:45:05;6.18;;;4.10;;
25549;SDS011;13444;50.562;7.262;2023-05-20T12:47:32;9.15;;;4.10;;
25549;SDS011;13444;50.562;7.262;2023-05-20T12:49:57;8.75;;;4.00;;
25549;SDS011;13444;50.562;7.262;2023-05-20T12:52:24;5.07;;;3.83;;
25549;SDS011;13444;50.562;7.262;2023-05-20T12:54:50;8.85;;;4.30;;
25549;SDS011;13444;50.562;7.262;2023-05-20T12:57:17;10.15;;;4.35;;
25549;SDS011;13444;50.562;7.262;2023-05-20T12:59:43;6.97;;;3.88;;
25549;SDS011;13444;50.562;7.262;2023-05-20T13:02:09;4.72;;;4.05;;
25549;SDS011;13444;50.562;7.262;2023-05-20T13:04:35;8.48;;;3.92;;
25549;SDS011;13444;50.562;7.262;2023-05-20T13:07:00;6.65;;;4.30;;
25549;SDS011;13444;50.562;7.262;2023-05-20T13:09:26;11.27;;;4.85;;
25549;SDS011;13444;50.562;7.262;2023-05-20T13:11:52;9.90;;;4.78;;
25549;SDS011;13444;50.562;7.262;2023-05-20T13:14:17;6.35;;;4.28;;
25549;SDS011;13444;50.562;7.262;2023-05-20T13:16:43;6.15;;;4.18;;
25549;SDS011;13444;50.562;7.262;2023-05-20T13:19:08;18.35;;;5.00;;
25549;SDS011;13444;50.562;7.262;2023-05-20T13:21:34;6.47;;;4.20;;
25549;SDS011;13444;50.562;7.262;2023-05-20T13:24:00;6.60;;;4.40;;
25549;SDS011;13444;50.562;7.262;2023-05-20T13:26:25;7.32;;;4.13;;
25549;SDS011;13444;50.562;7.262;2023-05-20T13:28:51;5.10;;;3.70;;
25549;SDS011;13444;50.562;7.262;2023-05-20T13:31:17;5.15;;;4.10;;
25549;SDS011;13444;50.562;7.262;2023-05-20T13:33:42;8.60;;;4.13;;
25549;SDS011;13444;50.562;7.262;2023-05-20T13:36:08;4.28;;;3.83;;
25549;SDS011;13444;50.562;7.262;2023-05-20T13:38:34;7.45;;;3.65;;
25549;SDS011;13444;50.562;7.262;2023-05-20T13:40:59;6.05;;;3.80;;
25549;SDS011;13444;50.562;7.262;2023-05-20T13:43:25;4.60;;;3.97;;
25549;SDS011;13444;50.562;7.262;2023-05-20T13:45:51;5.13;;;3.60;;
25549;SDS011;13444;50.562;7.262;2023-05-20T13:48:16;6.38;;;4.38;;
25549;SDS011;13444;50.562;7.262;2023-05-20T13:50:42;4.90;;;3.95;;
25549;SDS011;13444;50.562;7.262;2023-05-20T13:53:07;5.90;;;3.83;;
25549;SDS011;13444;50.562;7.262;2023-05-20T13:55:37;4.30;;;3.90;;
25549;SDS011;13444;50.562;7.262;2023-05-20T13:58:02;8.10;;;4.30;;
25549;SDS011;13444;50.562;7.262;2023-05-20T14:00:29;6.97;;;3.85;;
25549;SDS011;13444;50.562;7.262;2023-05-20T14:02:55;9.90;;;4.35;;
25549;SDS011;13444;50.562;7.262;2023-05-20T14:05:21;6.00;;;4.53;;
25549;SDS011;13444;50.562;7.262;2023-05-20T14:07:47;7.95;;;3.92;;
25549;SDS011;13444;50.562;7.262;2023-05-20T14:10:12;6.53;;;4.13;;
25549;SDS011;13444;50.562;7.262;2023-05-20T14:12:38;7.00;;;5.10;;
25549;SDS011;13444;50.562;7.262;2023-05-20T14:15:04;7.43;;;4.45;;
25549;SDS011;13444;50.562;7.262;2023-05-20T14:17:30;5.32;;;4.55;;
25549;SDS011;13444;50.562;7.262;2023-05-20T14:19:55;5.03;;;4.53;;
25549;SDS011;13444;50.562;7.262;2023-05-20T14:22:21;8.57;;;4.75;;
25549;SDS011;13444;50.562;7.262;2023-05-20T14:24:46;4.65;;;4.03;;
25549;SDS011;13444;50.562;7.262;2023-05-20T14:27:12;7.72;;;4.40;;
25549;SDS011;13444;50.562;7.262;2023-05-20T14:29:39;4.78;;;4.20;;
25549;SDS011;13444;50.562;7.262;2023-05-20T14:32:04;7.32;;;4.70;;
25549;SDS011;13444;50.562;7.262;2023-05-20T14:34:30;5.43;;;4.38;;
25549;SDS011;13444;50.562;7.262;2023-05-20T14:36:56;5.80;;;4.32;;
25549;SDS011;13444;50.562;7.262;2023-05-20T14:39:21;9.02;;;4.97;;
25549;SDS011;13444;50.562;7.262;2023-05-20T14:41:47;8.23;;;4.50;;
25549;SDS011;13444;50.562;7.262;2023-05-20T14:44:12;6.13;;;4.75;;
25549;SDS011;13444;50.562;7.262;2023-05-20T14:46:38;4.45;;;3.60;;
25549;SDS011;13444;50.562;7.262;2023-05-20T14:49:04;7.22;;;4.53;;
25549;SDS011;13444;50.562;7.262;2023-05-20T14:51:29;6.88;;;4.32;;
25549;SDS011;13444;50.562;7.262;2023-05-20T14:53:55;5.25;;;4.50;;
25549;SDS011;13444;50.562;7.262;2023-05-20T14:56:21;5.10;;;4.00;;
25549;SDS011;13444;50.562;7.262;2023-05-20T14:58:46;4.82;;;4.07;;